Time;durP1;ratioP1;P1;durP2;ratioP2;P2;SDS_P1;SDS_P2;PMS_P1;PMS_P2;Temp;Humidity;BMP_temperature;BMP_pressure;BME280_temperature;BME280_humidity;BME280_pressure;Samples;Min_cycle;Max_cycle;Signal;HPM_P1;HPM_P2
2023/07/02 00:01:11;;;;;;;5.72;3.22;;;20.40;80.00;;;;;;5115913;28;20024;-69
2023/07/02 00:03:38;;;;;;;4.35;2.88;;;20.40;79.90;;;;;;5116578;28;20024;-70
2023/07/02 00:06:04;;;;;;;4.82;2.80;;;20.40;79.90;;;;;;5115906;28;20030;-71
2023/07/02 00:08:29;;;;;;;4.25;2.75;;;20.50;79.80;;;;;;5116123;28;20032;-71
2023/07/02 00:10:55;;;;;;;4.28;2.92;;;20.40;79.80;;;;;;5115806;28;20039;-71
2023/07/02 00:13:20;;;;;;;6.30;3.20;;;20.40;79.80;;;;;;5115971;28;20472;-71
2023/07/02 00:15:46;;;;;;;4.38;2.55;;;20.50;79.70;;;;;;5115835;28;20177;-71
2023/07/02 00:18:16;;;;;;;4.47;2.97;;;20.50;79.90;;;;;;5115684;28;20035;-72
2023/07/02 00:21:04;;;;;;;5.57;3.30;;;20.50;79.90;;;;;;5117109;27;20028;-71
2023/07/02 00:23:30;;;;;;;3.60;2.60;;;20.50;79.90;;;;;;5116019;28;20295;-71
2023/07/02 00:25:57;;;;;;;3.15;2.60;;;20.50;79.90;;;;;;5115352;28;20067;-71
2023/07/02 00:28:22;;;;;;;3.53;2.60;;;20.50;80.00;;;;;;5115802;28;20387;-71
2023/07/02 00:30:48;;;;;;;4.18;3.17;;;20.50;79.80;;;;;;5115892;28;20027;-71
2023/07/02 00:33:13;;;;;;;5.57;2.75;;;20.50;79.70;;;;;;5115364;28;20024;-71
2023/07/02 00:35:39;;;;;;;4.45;2.63;;;20.50;79.90;;;;;;5115581;28;20035;-71
2023/07/02 00:38:05;;;;;;;4.47;3.00;;;20.50;80.20;;;;;;5114985;28;20043;-71
2023/07/02 00:40:31;;;;;;;4.93;2.70;;;20.50;80.00;;;;;;5114737;28;20036;-71
2023/07/02 00:42:56;;;;;;;3.80;2.50;;;20.50;80.10;;;;;;5115031;28;20035;-71
2023/07/02 00:45:22;;;;;;;3.90;2.75;;;20.50;80.00;;;;;;5115498;28;20520;-71
2023/07/02 00:47:48;;;;;;;4.65;2.83;;;20.50;79.90;;;;;;5115553;28;20047;-71
2023/07/02 00:50:14;;;;;;;5.60;3.13;;;20.50;79.90;;;;;;5117744;27;20024;-71
2023/07/02 00:52:40;;;;;;;3.78;2.63;;;20.50;79.90;;;;;;5115286;28;20030;-71
2023/07/02 00:55:06;;;;;;;4.88;2.55;;;20.50;80.10;;;;;;5114616;28;20435;-71
2023/07/02 00:57:32;;;;;;;4.10;2.63;;;20.50;80.10;;;;;;5115239;28;20070;-71
2023/07/02 01:00:00;;;;;;;5.82;3.17;;;20.50;80.10;;;;;;5096537;28;20020;-71
2023/07/02 01:02:29;;;;;;;6.28;2.72;;;20.50;80.10;;;;;;5115046;28;20059;-71
2023/07/02 01:04:58;;;;;;;4.88;2.92;;;20.50;80.10;;;;;;5114799;28;20028;-71
2023/07/02 01:07:23;;;;;;;2.90;2.20;;;20.40;80.10;;;;;;5114921;28;20035;-71
2023/07/02 01:09:49;;;;;;;3.83;2.72;;;20.40;80.20;;;;;;5114944;28;20115;-71
2023/07/02 01:12:17;;;;;;;5.03;2.50;;;20.40;80.30;;;;;;5114518;28;20031;-71
2023/07/02 01:14:50;;;;;;;3.88;2.80;;;20.40;80.40;;;;;;5114903;28;20032;-70
2023/07/02 01:17:19;;;;;;;5.75;3.00;;;20.40;80.30;;;;;;5114848;28;20070;-70
2023/07/02 01:19:53;;;;;;;8.05;2.92;;;20.40;80.30;;;;;;5114643;28;20426;-71
2023/07/02 01:22:25;;;;;;;4.20;2.35;;;20.40;80.40;;;;;;5129824;27;20015;-70
2023/07/02 01:24:51;;;;;;;6.82;2.60;;;20.40;80.50;;;;;;5135342;27;20440;-70
2023/07/02 01:27:17;;;;;;;3.38;2.97;;;20.40;80.70;;;;;;5134754;27;20131;-70
2023/07/02 01:29:46;;;;;;;3.63;2.33;;;20.30;81.00;;;;;;5134764;27;20057;-70
2023/07/02 01:32:13;;;;;;;5.22;3.05;;;20.30;80.60;;;;;;5134778;27;20084;-70
2023/07/02 01:34:39;;;;;;;5.15;2.55;;;20.40;80.60;;;;;;5134786;27;20429;-70
2023/07/02 01:37:05;;;;;;;8.15;2.65;;;20.30;80.60;;;;;;5134570;27;20079;-70
2023/07/02 01:39:31;;;;;;;6.10;2.78;;;20.40;80.70;;;;;;5134991;27;20019;-70
2023/07/02 01:42:08;;;;;;;3.65;2.50;;;20.30;80.70;;;;;;5134464;27;20024;-71
2023/07/02 01:44:34;;;;;;;5.53;2.72;;;20.30;80.80;;;;;;5135062;27;20027;-70
2023/07/02 01:47:00;;;;;;;5.18;3.10;;;20.20;81.00;;;;;;5133960;27;20046;-70
2023/07/02 01:49:25;;;;;;;3.35;2.40;;;20.20;81.10;;;;;;5134798;27;20034;-70
2023/07/02 01:51:52;;;;;;;3.45;2.80;;;20.20;81.20;;;;;;5134516;27;20023;-70
2023/07/02 01:54:18;;;;;;;3.83;2.60;;;20.20;81.20;;;;;;5133592;27;20023;-70
2023/07/02 01:56:44;;;;;;;4.70;2.60;;;20.10;81.10;;;;;;5134782;27;20107;-70
2023/07/02 01:59:09;;;;;;;3.38;2.50;;;20.10;81.20;;;;;;5134021;27;20046;-70
2023/07/02 02:01:35;;;;;;;3.70;2.50;;;20.10;81.40;;;;;;5134333;27;20023;-70
2023/07/02 02:04:01;;;;;;;3.20;2.65;;;20.10;81.60;;;;;;5134423;27;20077;-70
2023/07/02 02:06:26;;;;;;;4.25;2.53;;;20.00;81.60;;;;;;5134447;27;20034;-70
2023/07/02 02:08:52;;;;;;;4.25;2.85;;;20.00;81.80;;;;;;5134410;27;20088;-70
2023/07/02 02:11:17;;;;;;;3.35;2.70;;;20.00;81.90;;;;;;5134066;27;20031;-70
2023/07/02 02:13:43;;;;;;;3.75;2.80;;;20.00;82.20;;;;;;5134421;27;20444;-70
2023/07/02 02:16:09;;;;;;;4.57;2.65;;;19.90;82.30;;;;;;5133752;27;20023;-70
2023/07/02 02:18:34;;;;;;;4.50;2.50;;;19.90;82.40;;;;;;5134090;27;20035;-70
2023/07/02 02:21:00;;;;;;;4.55;2.75;;;19.90;82.60;;;;;;5122749;27;20024;-70
2023/07/02 02:23:26;;;;;;;4.53;2.90;;;19.90;82.70;;;;;;5113700;28;20107;-70
2023/07/02 02:25:51;;;;;;;4.60;2.53;;;19.90;82.90;;;;;;5113687;28;20161;-70
2023/07/02 02:28:17;;;;;;;2.80;2.58;;;19.80;83.10;;;;;;5113152;28;20456;-70
2023/07/02 02:30:42;;;;;;;4.80;2.63;;;19.80;83.40;;;;;;5095368;28;20036;-70
2023/07/02 02:33:08;;;;;;;3.90;3.05;;;19.80;83.60;;;;;;5113277;28;20103;-70
2023/07/02 02:35:33;;;;;;;6.85;2.80;;;19.70;83.70;;;;;;5113562;28;20103;-70
2023/07/02 02:38:04;;;;;;;3.65;2.63;;;19.70;83.80;;;;;;5113354;28;20352;-80
2023/07/02 02:40:30;;;;;;;4.15;2.80;;;19.70;83.90;;;;;;5113364;28;20032;-70
2023/07/02 02:42:56;;;;;;;3.72;2.88;;;19.60;84.00;;;;;;5113361;28;20141;-70
2023/07/02 02:45:21;;;;;;;7.00;2.80;;;19.60;84.20;;;;;;5112648;28;20055;-70
2023/07/02 02:47:47;;;;;;;5.18;3.35;;;19.60;84.20;;;;;;5113363;28;20044;-70
2023/07/02 02:50:13;;;;;;;7.22;2.80;;;19.60;84.90;;;;;;5112960;28;20023;-71
2023/07/02 02:52:39;;;;;;;3.95;2.90;;;19.60;84.50;;;;;;5113341;28;20364;-69
2023/07/02 02:55:07;;;;;;;6.90;2.75;;;19.60;84.70;;;;;;5112584;28;20031;-71
2023/07/02 02:57:33;;;;;;;4.13;2.65;;;19.50;84.90;;;;;;5115770;28;20099;-71
2023/07/02 02:59:59;;;;;;;5.57;2.97;;;19.60;85.20;;;;;;5113472;28;20353;-71
2023/07/02 03:02:25;;;;;;;3.90;2.75;;;19.50;85.00;;;;;;5112566;28;20039;-70
2023/07/02 03:04:50;;;;;;;4.22;2.88;;;19.60;85.10;;;;;;5115389;28;20427;-71
2023/07/02 03:07:16;;;;;;;4.32;2.85;;;19.60;85.10;;;;;;5116956;28;20069;-71
2023/07/02 03:09:42;;;;;;;4.50;2.90;;;19.60;85.20;;;;;;5117055;28;20023;-71
2023/07/02 03:12:08;;;;;;;6.15;3.47;;;19.60;85.20;;;;;;5116945;28;20091;-71
2023/07/02 03:14:33;;;;;;;3.55;2.88;;;19.60;85.30;;;;;;5117345;28;20031;-70
2023/07/02 03:16:59;;;;;;;4.65;3.25;;;19.60;85.40;;;;;;5117142;28;20035;-71
2023/07/02 03:19:25;;;;;;;3.85;3.03;;;19.60;85.50;;;;;;5116780;28;20027;-71
2023/07/02 03:21:50;;;;;;;4.22;3.38;;;19.60;85.60;;;;;;5117268;28;20376;-71
2023/07/02 03:24:16;;;;;;;3.63;2.53;;;19.60;85.60;;;;;;5117012;28;20023;-70
2023/07/02 03:26:43;;;;;;;4.53;2.75;;;19.60;85.70;;;;;;5116800;28;20385;-70
2023/07/02 03:29:09;;;;;;;4.47;2.78;;;19.60;85.60;;;;;;5117498;27;20043;-71
2023/07/02 03:31:34;;;;;;;5.57;3.25;;;19.60;85.70;;;;;;5136021;27;20076;-70
2023/07/02 03:34:06;;;;;;;5.40;3.05;;;19.70;85.80;;;;;;5137411;27;20023;-71
2023/07/02 03:36:32;;;;;;;4.30;2.80;;;19.70;85.80;;;;;;5137128;27;20053;-70
2023/07/02 03:38:58;;;;;;;4.80;2.80;;;19.70;85.90;;;;;;5118841;27;20062;-71
2023/07/02 03:41:24;;;;;;;4.72;2.85;;;19.80;86.00;;;;;;5137182;27;20219;-71
2023/07/02 03:43:49;;;;;;;3.42;2.90;;;19.70;86.00;;;;;;5137239;27;20094;-71
2023/07/02 03:46:15;;;;;;;6.45;2.92;;;19.80;86.10;;;;;;5136583;27;20134;-71
2023/07/02 03:48:40;;;;;;;6.32;3.17;;;19.80;86.20;;;;;;5137090;27;20463;-70
2023/07/02 03:51:06;;;;;;;4.43;2.95;;;19.80;86.10;;;;;;5136725;27;20019;-72
2023/07/02 03:53:32;;;;;;;4.53;2.97;;;19.90;86.00;;;;;;5136858;27;20026;-71
2023/07/02 03:55:58;;;;;;;3.65;3.05;;;20.00;85.80;;;;;;5136697;27;20027;-71
2023/07/02 03:58:23;;;;;;;4.32;2.80;;;20.00;85.80;;;;;;5136523;27;20031;-71
2023/07/02 04:00:49;;;;;;;4.20;2.80;;;20.10;85.40;;;;;;5136978;27;20023;-71
2023/07/02 04:03:17;;;;;;;4.30;3.10;;;20.20;85.10;;;;;;5136312;27;20038;-71
2023/07/02 04:05:43;;;;;;;5.10;3.00;;;20.30;84.80;;;;;;5136853;27;20019;-71
2023/07/02 04:08:09;;;;;;;4.35;2.58;;;20.40;84.40;;;;;;5136422;27;20106;-71
2023/07/02 04:10:35;;;;;;;3.75;3.22;;;20.40;84.80;;;;;;5136508;27;20031;-71
2023/07/02 04:13:01;;;;;;;6.35;2.90;;;20.50;84.20;;;;;;5136719;27;20387;-70
2023/07/02 04:15:26;;;;;;;5.20;3.13;;;20.60;84.20;;;;;;5135446;27;20027;-71
2023/07/02 04:17:52;;;;;;;3.85;2.85;;;20.60;84.10;;;;;;5136132;27;20087;-71
2023/07/02 04:20:19;;;;;;;3.45;2.80;;;20.70;84.00;;;;;;5136212;27;20023;-71
2023/07/02 04:22:46;;;;;;;3.55;3.22;;;20.80;83.80;;;;;;5136256;27;20539;-71
2023/07/02 04:25:15;;;;;;;4.13;2.83;;;20.80;83.80;;;;;;5127845;27;20381;-71
2023/07/02 04:27:42;;;;;;;5.10;3.20;;;20.80;83.70;;;;;;5115720;28;20046;-71
2023/07/02 04:30:09;;;;;;;5.80;3.03;;;21.00;83.80;;;;;;5115410;28;20391;-78
2023/07/02 04:32:35;;;;;;;4.53;2.80;;;21.10;83.40;;;;;;5115346;28;20495;-71
2023/07/02 04:35:01;;;;;;;5.55;3.20;;;21.10;83.10;;;;;;5115520;28;20028;-70
2023/07/02 04:37:30;;;;;;;3.95;3.13;;;21.10;83.70;;;;;;5115250;28;20042;-71
2023/07/02 04:39:55;;;;;;;4.45;3.20;;;21.10;84.10;;;;;;5115362;28;20030;-70
2023/07/02 04:42:21;;;;;;;6.18;2.95;;;21.10;84.40;;;;;;5115206;28;20024;-70
2023/07/02 04:44:46;;;;;;;4.28;2.72;;;21.00;85.30;;;;;;5115225;28;20023;-71
2023/07/02 04:47:12;;;;;;;3.95;2.42;;;20.90;86.10;;;;;;5115004;28;20098;-71
2023/07/02 04:49:39;;;;;;;5.53;2.78;;;20.80;87.00;;;;;;5115467;28;20072;-69
2023/07/02 04:52:05;;;;;;;9.35;3.38;;;20.70;88.00;;;;;;5115606;28;20023;-70
2023/07/02 04:54:30;;;;;;;4.55;2.72;;;20.70;89.00;;;;;;5115010;28;20055;-70
2023/07/02 04:56:56;;;;;;;4.28;3.08;;;20.80;88.80;;;;;;5115238;28;20375;-70
2023/07/02 04:59:22;;;;;;;7.35;2.65;;;20.70;89.50;;;;;;5117512;27;20032;-71
2023/07/02 05:01:47;;;;;;;4.55;2.63;;;20.70;90.00;;;;;;5115245;28;20464;-70
2023/07/02 05:04:13;;;;;;;5.82;2.72;;;20.70;90.30;;;;;;5114476;28;20077;-71
2023/07/02 05:06:39;;;;;;;4.13;2.70;;;20.70;90.40;;;;;;5115240;28;20051;-70
2023/07/02 05:09:05;;;;;;;10.50;3.25;;;20.80;90.50;;;;;;5114996;28;20047;-70
2023/07/02 05:11:30;;;;;;;4.43;2.47;;;20.70;90.60;;;;;;5114646;28;20539;-71
2023/07/02 05:13:56;;;;;;;3.22;2.00;;;20.70;91.00;;;;;;5114925;28;20036;-70
2023/07/02 05:16:22;;;;;;;3.80;2.40;;;20.70;91.30;;;;;;5114594;28;20022;-70
2023/07/02 05:18:47;;;;;;;2.78;2.25;;;20.80;91.40;;;;;;5115009;28;20076;-70
2023/07/02 05:21:17;;;;;;;2.33;1.70;;;21.30;90.60;;;;;;5114213;28;20537;-71
2023/07/02 05:23:42;;;;;;;4.78;2.60;;;21.30;90.30;;;;;;5114857;28;20187;-71
2023/07/02 05:26:08;;;;;;;4.32;2.17;;;21.20;90.60;;;;;;5119133;27;20549;-71
2023/07/02 05:28:33;;;;;;;3.22;2.50;;;21.00;91.00;;;;;;5134691;27;20057;-70
2023/07/02 05:30:59;;;;;;;5.07;2.60;;;20.80;91.60;;;;;;5134973;27;20061;-71
2023/07/02 05:33:25;;;;;;;2.92;2.28;;;20.80;92.00;;;;;;5134581;27;20049;-70
2023/07/02 05:35:50;;;;;;;3.30;2.47;;;20.70;92.20;;;;;;5135064;27;20035;-70
2023/07/02 05:38:18;;;;;;;5.70;2.55;;;20.60;92.70;;;;;;5134710;27;20495;-71
2023/07/02 05:40:44;;;;;;;4.53;2.58;;;20.50;93.20;;;;;;5134999;27;20050;-70
2023/07/02 05:43:09;;;;;;;4.47;2.50;;;20.50;93.70;;;;;;5135020;27;20112;-71
2023/07/02 05:45:35;;;;;;;5.22;2.40;;;20.40;94.00;;;;;;5134646;27;20099;-71
2023/07/02 05:48:01;;;;;;;4.22;2.58;;;20.30;94.50;;;;;;5134904;27;20035;-70
2023/07/02 05:50:26;;;;;;;6.18;2.70;;;20.30;95.10;;;;;;5134380;27;20055;-70
2023/07/02 05:52:52;;;;;;;3.50;2.38;;;20.20;95.60;;;;;;5134816;27;20441;-70
2023/07/02 05:55:18;;;;;;;3.85;2.72;;;20.20;96.30;;;;;;5134067;27;20428;-71
2023/07/02 05:57:44;;;;;;;2.63;2.42;;;20.20;96.50;;;;;;5134778;27;20033;-70
2023/07/02 06:00:10;;;;;;;5.65;2.58;;;20.20;96.70;;;;;;5134742;27;20101;-70
2023/07/02 06:02:36;;;;;;;5.03;2.70;;;20.10;97.20;;;;;;5134013;27;20059;-69
2023/07/02 06:05:02;;;;;;;6.53;2.85;;;20.10;97.50;;;;;;5134581;27;20047;-71
2023/07/02 06:07:28;;;;;;;4.68;2.80;;;20.10;97.80;;;;;;5134145;27;20083;-70
2023/07/02 06:09:53;;;;;;;5.95;2.70;;;20.10;98.20;;;;;;5134478;27;20143;-70
2023/07/02 06:12:21;;;;;;;3.72;2.97;;;20.10;98.40;;;;;;5134073;27;20051;-71
2023/07/02 06:14:46;;;;;;;4.32;2.70;;;20.10;98.70;;;;;;5134275;27;20114;-70
2023/07/02 06:17:12;;;;;;;5.00;3.05;;;20.10;98.80;;;;;;5134642;27;20114;-70
2023/07/02 06:19:38;;;;;;;3.45;2.97;;;20.10;98.90;;;;;;5133854;27;20466;-71
2023/07/02 06:22:04;;;;;;;4.07;2.72;;;20.10;98.90;;;;;;5134186;27;20451;-71
2023/07/02 06:24:29;;;;;;;3.45;3.15;;;20.10;99.20;;;;;;5133861;27;20027;-70
2023/07/02 06:26:55;;;;;;;4.68;3.25;;;20.10;99.20;;;;;;5133836;27;20460;-71
2023/07/02 06:29:23;;;;;;;4.32;3.20;;;20.20;99.40;;;;;;5132832;27;20099;-71
2023/07/02 06:31:49;;;;;;;3.85;3.15;;;20.20;99.40;;;;;;5134460;27;20026;-71
2023/07/02 06:34:15;;;;;;;3.42;3.13;;;20.20;99.30;;;;;;5133803;27;20027;-70
2023/07/02 06:36:40;;;;;;;3.03;2.65;;;20.20;99.30;;;;;;5133501;27;20039;-71
2023/07/02 06:39:06;;;;;;;2.92;2.63;;;20.30;99.20;;;;;;5133504;27;20027;-70
2023/07/02 06:41:32;;;;;;;5.13;3.20;;;20.40;99.00;;;;;;5133612;27;20059;-71
2023/07/02 06:43:57;;;;;;;3.05;2.78;;;20.50;98.80;;;;;;5133919;27;20508;-71
2023/07/02 06:46:23;;;;;;;4.00;2.60;;;20.60;98.50;;;;;;5133240;27;20047;-71
2023/07/02 06:48:48;;;;;;;3.78;2.85;;;20.60;98.20;;;;;;5133807;27;20023;-70
2023/07/02 06:51:14;;;;;;;4.30;2.47;;;20.70;97.70;;;;;;5133434;27;20139;-71
2023/07/02 06:53:44;;;;;;;3.97;2.50;;;20.70;97.40;;;;;;5133298;27;20031;-71
2023/07/02 06:56:10;;;;;;;2.95;2.25;;;20.80;97.50;;;;;;5115230;27;20026;-71
2023/07/02 06:58:35;;;;;;;5.13;2.40;;;20.70;97.30;;;;;;5130073;27;20031;-71
2023/07/02 07:01:01;;;;;;;4.63;2.33;;;20.80;97.20;;;;;;5133751;27;20030;-71
2023/07/02 07:03:27;;;;;;;3.63;2.67;;;20.80;97.20;;;;;;5133314;28;20019;-71
2023/07/02 07:05:53;;;;;;;3.80;2.25;;;20.90;97.30;;;;;;5133573;28;20317;-71
2023/07/02 07:08:19;;;;;;;2.40;2.20;;;21.00;96.70;;;;;;5133065;28;20171;-78
2023/07/02 07:10:45;;;;;;;3.00;2.30;;;21.20;96.50;;;;;;5133501;28;20125;-71
2023/07/02 07:13:11;;;;;;;2.25;2.05;;;21.40;96.20;;;;;;5133432;28;20512;-71
2023/07/02 07:15:38;;;;;;;3.42;2.25;;;22.30;93.80;;;;;;5133027;28;20019;-72
2023/07/02 07:18:03;;;;;;;2.20;1.92;;;23.30;91.90;;;;;;5133516;28;20180;-71
2023/07/02 07:20:30;;;;;;;3.78;2.08;;;23.90;89.20;;;;;;5133162;28;20512;-72
2023/07/02 07:22:56;;;;;;;5.28;1.90;;;24.60;87.50;;;;;;5133441;28;20172;-71
2023/07/02 07:25:22;;;;;;;2.50;1.95;;;25.70;82.30;;;;;;5133042;28;20110;-71
2023/07/02 07:27:47;;;;;;;5.20;2.00;;;26.50;79.20;;;;;;5133304;28;20119;-70
2023/07/02 07:30:14;;;;;;;2.60;1.85;;;27.30;75.90;;;;;;5133713;28;20019;-70
2023/07/02 07:32:41;;;;;;;3.80;2.10;;;27.90;69.70;;;;;;5132787;28;20353;-71
2023/07/02 07:35:07;;;;;;;1.92;1.75;;;28.00;66.40;;;;;;5126374;28;20027;-70
2023/07/02 07:37:33;;;;;;;2.17;1.80;;;28.00;65.50;;;;;;5112390;28;20111;-71
2023/07/02 07:39:58;;;;;;;2.53;1.90;;;28.00;65.80;;;;;;5112986;28;20051;-70
2023/07/02 07:42:24;;;;;;;3.00;2.30;;;28.30;65.80;;;;;;5112041;28;20383;-71
2023/07/02 07:44:50;;;;;;;2.00;1.75;;;28.30;65.30;;;;;;5112938;28;20027;-72
2023/07/02 07:47:16;;;;;;;3.92;2.20;;;28.20;64.90;;;;;;5112744;28;20055;-70
2023/07/02 07:49:42;;;;;;;2.33;1.90;;;28.10;64.60;;;;;;5112298;28;20023;-70
2023/07/02 07:52:08;;;;;;;2.03;1.83;;;28.40;64.50;;;;;;5116470;28;20339;-71
2023/07/02 07:54:36;;;;;;;5.00;1.77;;;28.80;63.80;;;;;;5116141;28;20024;-71
2023/07/02 07:57:04;;;;;;;2.35;1.88;;;29.00;62.70;;;;;;5116557;28;20031;-71
2023/07/02 07:59:30;;;;;;;2.42;1.98;;;28.80;62.40;;;;;;5116009;28;20032;-71
2023/07/02 08:01:55;;;;;;;3.05;2.20;;;27.90;62.60;;;;;;5116599;28;20528;-71
2023/07/02 08:04:21;;;;;;;1.90;1.80;;;27.30;64.10;;;;;;5116313;28;20106;-70
2023/07/02 08:06:46;;;;;;;2.15;1.90;;;26.80;66.00;;;;;;5115577;28;20016;-70
2023/07/02 08:09:12;;;;;;;2.40;1.95;;;26.20;67.00;;;;;;5116171;28;20035;-70
2023/07/02 08:11:38;;;;;;;2.40;2.13;;;26.20;68.90;;;;;;5115801;28;20379;-70
2023/07/02 08:14:03;;;;;;;2.30;2.10;;;26.30;68.30;;;;;;5116151;28;20032;-70
2023/07/02 08:16:29;;;;;;;3.38;2.22;;;26.50;68.70;;;;;;5115659;28;20027;-71
2023/07/02 08:18:55;;;;;;;3.10;2.53;;;26.80;68.00;;;;;;5116160;28;20059;-70
2023/07/02 08:21:20;;;;;;;3.25;2.28;;;26.80;66.90;;;;;;5117460;27;20024;-70
2023/07/02 08:23:46;;;;;;;2.38;2.08;;;26.50;66.70;;;;;;5115240;28;20039;-70
2023/07/02 08:26:12;;;;;;;2.28;1.80;;;26.40;66.90;;;;;;5115506;28;20023;-70
2023/07/02 08:28:38;;;;;;;3.35;2.25;;;26.50;67.00;;;;;;5115285;28;20078;-71
2023/07/02 08:31:05;;;;;;;3.20;2.20;;;26.50;67.50;;;;;;5115687;28;20034;-70
2023/07/02 08:33:31;;;;;;;4.53;1.83;;;26.40;67.80;;;;;;5115348;28;20040;-71
2023/07/02 08:35:57;;;;;;;2.80;2.03;;;26.50;67.00;;;;;;5097318;28;20027;-70
2023/07/02 08:38:23;;;;;;;3.50;2.05;;;26.50;67.60;;;;;;5115624;28;20031;-70
2023/07/02 08:40:52;;;;;;;2.90;1.90;;;26.50;68.40;;;;;;5115077;28;20020;-71
2023/07/02 08:43:17;;;;;;;3.05;2.00;;;26.60;66.60;;;;;;5115231;28;20031;-71
2023/07/02 08:45:43;;;;;;;3.25;2.17;;;26.50;66.70;;;;;;5115183;28;20039;-71
2023/07/02 08:48:10;;;;;;;3.00;1.90;;;26.70;66.80;;;;;;5116501;27;20131;-71
2023/07/02 08:50:36;;;;;;;6.25;2.05;;;26.80;66.50;;;;;;5134027;27;20031;-71
2023/07/02 08:53:02;;;;;;;2.95;2.13;;;26.60;65.60;;;;;;5135823;27;20027;-71
2023/07/02 08:55:29;;;;;;;2.30;2.10;;;26.30;66.60;;;;;;5135095;27;20047;-71
2023/07/02 08:57:59;;;;;;;2.78;2.05;;;26.00;68.40;;;;;;5135798;27;20037;-71
2023/07/02 09:00:25;;;;;;;2.90;2.25;;;25.90;68.20;;;;;;5135986;27;20027;-71
2023/07/02 09:02:51;;;;;;;3.88;2.42;;;25.80;68.10;;;;;;5134565;27;20480;-71
2023/07/02 09:05:17;;;;;;;3.55;2.33;;;25.70;68.00;;;;;;5135790;27;20019;-71
2023/07/02 09:07:46;;;;;;;2.72;2.13;;;25.70;67.90;;;;;;5135147;27;20035;-70
2023/07/02 09:10:25;;;;;;;3.53;2.42;;;25.70;67.80;;;;;;5135549;27;20027;-70
2023/07/02 09:12:50;;;;;;;2.55;2.20;;;25.80;69.50;;;;;;5135193;27;20471;-70
2023/07/02 09:15:19;;;;;;;4.68;2.30;;;25.80;69.10;;;;;;5135543;27;20053;-70
2023/07/02 09:17:44;;;;;;;3.88;2.15;;;25.90;68.40;;;;;;5135354;27;20038;-70
2023/07/02 09:20:10;;;;;;;4.25;2.38;;;25.90;68.30;;;;;;5135426;27;20023;-70
2023/07/02 09:22:37;;;;;;;3.78;2.47;;;25.90;67.90;;;;;;5134969;27;20336;-71
2023/07/02 09:25:03;;;;;;;2.58;2.05;;;25.90;67.30;;;;;;5135259;27;20057;-71
2023/07/02 09:27:35;;;;;;;2.40;2.10;;;25.90;67.50;;;;;;5135199;27;20076;-71
2023/07/02 09:30:11;;;;;;;2.70;2.10;;;25.60;67.80;;;;;;5135049;27;20034;-71
2023/07/02 09:32:37;;;;;;;2.53;2.00;;;25.50;68.10;;;;;;5128412;27;20020;-71
2023/07/02 09:35:04;;;;;;;2.83;1.92;;;25.60;68.90;;;;;;5096192;28;20057;-71
2023/07/02 09:37:31;;;;;;;2.47;2.10;;;25.60;67.50;;;;;;5114071;28;20032;-78
2023/07/02 09:39:57;;;;;;;3.72;2.50;;;25.60;67.70;;;;;;5114190;28;20039;-71
2023/07/02 09:42:24;;;;;;;3.30;1.88;;;25.60;67.20;;;;;;5114420;28;20028;-71
2023/07/02 09:44:54;;;;;;;2.15;1.88;;;25.60;66.70;;;;;;5114251;28;20155;-71
2023/07/02 09:47:22;;;;;;;2.80;2.35;;;25.60;66.60;;;;;;5114280;28;20044;-71
2023/07/02 09:50:05;;;;;;;2.50;2.22;;;25.50;66.90;;;;;;5113762;28;20080;-71
2023/07/02 09:52:31;;;;;;;3.78;2.28;;;25.40;66.50;;;;;;5113961;28;20102;-78
2023/07/02 09:54:57;;;;;;;3.03;2.60;;;25.40;67.80;;;;;;5114090;28;20030;-71
2023/07/02 09:57:23;;;;;;;3.05;2.35;;;25.50;68.20;;;;;;5114076;28;20024;-71
2023/07/02 09:59:50;;;;;;;2.70;2.15;;;25.40;68.40;;;;;;5113615;28;20020;-71
2023/07/02 10:02:15;;;;;;;5.95;2.40;;;25.40;68.50;;;;;;5113940;28;20035;-71
2023/07/02 10:04:46;;;;;;;4.57;2.45;;;25.30;67.50;;;;;;5113655;28;20023;-71
2023/07/02 10:07:13;;;;;;;4.65;2.42;;;25.20;67.50;;;;;;5113843;28;20027;-70
2023/07/02 10:09:41;;;;;;;3.08;2.50;;;25.10;67.20;;;;;;5113296;28;20019;-71
2023/07/02 10:12:19;;;;;;;2.38;2.10;;;24.90;67.70;;;;;;5113651;28;20076;-71
2023/07/02 10:14:47;;;;;;;3.33;2.33;;;24.80;68.70;;;;;;5112557;28;20039;-70
2023/07/02 10:17:36;;;;;;;4.70;2.60;;;24.70;68.90;;;;;;5113849;28;20030;-70
2023/07/02 10:20:06;;;;;;;5.07;2.47;;;24.50;69.40;;;;;;5095467;28;20024;-71
2023/07/02 10:22:47;;;;;;;2.83;2.28;;;24.50;70.50;;;;;;5113851;28;20028;-71
2023/07/02 10:25:27;;;;;;;3.30;2.60;;;24.40;70.30;;;;;;5113708;28;20130;-70
2023/07/02 10:27:53;;;;;;;2.95;2.50;;;24.30;70.60;;;;;;5113233;28;20115;-71
2023/07/02 10:30:18;;;;;;;3.85;2.28;;;24.40;71.00;;;;;;5113550;28;20160;-70
2023/07/02 10:32:44;;;;;;;2.65;2.35;;;24.50;70.90;;;;;;5112833;28;20124;-70
2023/07/02 10:35:16;;;;;;;5.10;2.40;;;24.50;70.80;;;;;;5113734;28;20353;-70
2023/07/02 10:37:42;;;;;;;4.15;2.30;;;24.60;70.60;;;;;;5094808;28;20023;-70
2023/07/02 10:40:09;;;;;;;3.80;2.40;;;24.70;70.30;;;;;;5113416;28;20095;-70
2023/07/02 10:42:55;;;;;;;3.67;2.50;;;24.70;71.30;;;;;;5094857;28;20383;-78
2023/07/02 10:45:30;;;;;;;3.83;2.53;;;24.70;70.70;;;;;;5114732;27;20016;-71
2023/07/02 10:47:55;;;;;;;3.28;2.35;;;24.80;70.80;;;;;;5112570;28;20407;-70
2023/07/02 10:50:23;;;;;;;4.40;2.45;;;24.90;70.40;;;;;;5113125;28;20099;-70
2023/07/02 10:52:51;;;;;;;5.40;2.63;;;24.90;70.60;;;;;;5112889;28;20428;-70
2023/07/02 10:55:19;;;;;;;5.10;2.95;;;24.90;69.70;;;;;;5113048;28;20047;-70
2023/07/02 10:57:44;;;;;;;4.28;2.30;;;24.90;69.50;;;;;;5112672;28;20034;-70
2023/07/02 11:00:11;;;;;;;4.32;2.58;;;25.00;69.30;;;;;;5095094;28;20464;-70
2023/07/02 11:02:40;;;;;;;7.47;2.53;;;25.10;69.00;;;;;;5112622;28;20028;-75
2023/07/02 11:05:11;;;;;;;3.95;2.38;;;25.10;69.10;;;;;;5113076;28;20039;-70
2023/07/02 11:07:46;;;;;;;10.07;2.50;;;25.10;69.10;;;;;;5112779;28;20027;-76
2023/07/02 11:10:20;;;;;;;3.65;2.60;;;25.10;68.60;;;;;;5112837;28;20476;-70
2023/07/02 11:12:46;;;;;;;2.78;2.17;;;25.10;68.90;;;;;;5112645;28;20031;-71
2023/07/02 11:15:19;;;;;;;5.00;2.42;;;25.00;67.70;;;;;;5112930;28;20020;-70
2023/07/02 11:17:45;;;;;;;3.22;2.28;;;25.00;68.10;;;;;;5112717;28;20023;-70
2023/07/02 11:20:12;;;;;;;5.93;2.60;;;25.00;67.40;;;;;;5113054;28;20020;-70
2023/07/02 11:22:38;;;;;;;2.53;2.15;;;24.90;67.90;;;;;;5112515;28;20020;-78
2023/07/02 11:25:18;;;;;;;3.75;2.65;;;24.80;68.40;;;;;;5113587;28;20081;-70
2023/07/02 11:27:44;;;;;;;3.03;2.45;;;24.90;67.90;;;;;;5116577;28;20078;-70
2023/07/02 11:30:10;;;;;;;3.08;2.42;;;24.90;67.70;;;;;;5116933;28;20061;-70
2023/07/02 11:32:53;;;;;;;3.95;2.40;;;24.90;67.40;;;;;;5119350;27;20525;-70
2023/07/02 11:35:19;;;;;;;3.05;2.03;;;24.90;68.00;;;;;;5117122;28;20028;-70
2023/07/02 11:37:46;;;;;;;2.67;2.17;;;24.80;67.70;;;;;;5116550;28;20108;-70
2023/07/02 11:40:12;;;;;;;4.72;2.60;;;24.70;67.40;;;;;;5116806;28;20028;-70
2023/07/02 11:42:38;;;;;;;4.57;1.95;;;24.70;67.90;;;;;;5117057;28;20032;-70
2023/07/02 11:45:04;;;;;;;3.85;2.40;;;24.60;67.80;;;;;;5116733;28;20367;-70
2023/07/02 11:47:30;;;;;;;2.28;1.90;;;24.50;67.50;;;;;;5116815;28;20043;-70
2023/07/02 11:49:55;;;;;;;3.20;2.25;;;24.50;67.40;;;;;;5116254;28;20104;-70
2023/07/02 11:52:21;;;;;;;3.45;2.50;;;24.40;67.70;;;;;;5116542;28;20028;-70
2023/07/02 11:54:48;;;;;;;2.95;2.10;;;24.40;68.10;;;;;;5116289;28;20023;-70
2023/07/02 11:57:13;;;;;;;3.10;2.78;;;24.30;68.80;;;;;;5116567;28;20019;-70
2023/07/02 11:59:40;;;;;;;2.30;2.10;;;24.30;68.20;;;;;;5116194;28;20035;-70
2023/07/02 12:02:05;;;;;;;3.05;2.30;;;24.30;67.40;;;;;;5116230;28;20122;-71
2023/07/02 12:04:31;;;;;;;4.57;2.28;;;24.10;67.80;;;;;;5116183;28;20129;-70
2023/07/02 12:06:56;;;;;;;2.30;1.92;;;24.10;68.70;;;;;;5117251;27;20038;-70
2023/07/02 12:09:22;;;;;;;5.18;2.30;;;24.10;68.90;;;;;;5116221;28;20076;-70
2023/07/02 12:11:48;;;;;;;4.72;1.95;;;24.10;68.70;;;;;;5115872;28;20341;-70
2023/07/02 12:14:13;;;;;;;3.30;2.03;;;24.10;68.80;;;;;;5116184;28;20031;-70
2023/07/02 12:16:39;;;;;;;2.47;2.15;;;24.10;68.30;;;;;;5116175;28;20070;-70
2023/07/02 12:19:05;;;;;;;3.92;2.20;;;24.00;68.30;;;;;;5115695;28;20031;-70
2023/07/02 12:21:31;;;;;;;6.55;2.50;;;23.90;68.80;;;;;;5116130;28;20402;-70
2023/07/02 12:23:57;;;;;;;3.25;2.17;;;23.90;69.00;;;;;;5097305;28;20379;-69
2023/07/02 12:26:22;;;;;;;3.35;2.10;;;23.90;68.20;;;;;;5115810;28;20020;-69
2023/07/02 12:28:48;;;;;;;4.30;2.17;;;23.80;69.00;;;;;;5115231;28;20036;-71
2023/07/02 12:31:13;;;;;;;4.72;1.90;;;23.80;69.30;;;;;;5115892;28;20107;-71
2023/07/02 12:33:39;;;;;;;4.70;2.63;;;23.80;68.60;;;;;;5116088;28;20035;-71
2023/07/02 12:36:05;;;;;;;3.70;2.15;;;23.70;69.90;;;;;;5115059;28;20093;-71
2023/07/02 12:38:31;;;;;;;4.57;2.17;;;23.70;68.70;;;;;;5115045;28;20027;-70
2023/07/02 12:40:57;;;;;;;3.45;2.35;;;23.70;68.70;;;;;;5115255;28;20080;-70
2023/07/02 12:43:22;;;;;;;3.75;1.92;;;23.70;69.20;;;;;;5118294;27;20015;-71
2023/07/02 12:45:48;;;;;;;3.67;2.08;;;23.80;68.40;;;;;;5114948;28;20062;-71